Time;durP1;ratioP1;P1;durP2;ratioP2;P2;SDS_P1;SDS_P2;PMS_P1;PMS_P2;Temp;Humidity;BMP_temperature;BMP_pressure;BME280_temperature;BME280_humidity;BME280_pressure;Samples;Min_cycle;Max_cycle;Signal;HPM_P1;HPM_P2
2023/09/20 00:00:19;;;;;;;2.70;0.57;;;18.30;88.00;;;;;;5020048;28;20052;-85
2023/09/20 00:02:49;;;;;;;2.53;0.50;;;18.30;88.00;;;;;;5025214;28;20099;-85
2023/09/20 00:05:21;;;;;;;3.65;0.45;;;18.30;88.10;;;;;;5020499;28;20041;-85
2023/09/20 00:07:54;;;;;;;2.03;0.40;;;18.30;88.10;;;;;;5033981;28;20047;-85
2023/09/20 00:10:27;;;;;;;3.65;0.52;;;18.30;88.10;;;;;;5033398;28;20052;-85
2023/09/20 00:12:54;;;;;;;2.60;0.70;;;18.30;88.00;;;;;;5015936;28;20132;-85
2023/09/20 00:15:24;;;;;;;2.60;0.70;;;18.30;87.90;;;;;;5043819;28;20055;-85
2023/09/20 00:17:54;;;;;;;1.90;0.50;;;18.40;88.00;;;;;;5006070;28;20473;-85
2023/09/20 00:20:21;;;;;;;2.53;0.60;;;18.40;87.90;;;;;;5038546;28;20057;-85
2023/09/20 00:22:50;;;;;;;2.38;0.45;;;18.40;88.00;;;;;;5020956;28;20049;-85
2023/09/20 00:25:18;;;;;;;3.53;0.70;;;18.40;87.90;;;;;;5022664;28;20049;-85
2023/09/20 00:27:46;;;;;;;2.95;0.60;;;18.40;87.90;;;;;;5035857;28;20091;-85
2023/09/20 00:30:15;;;;;;;1.52;0.35;;;18.40;87.90;;;;;;5018604;28;20453;-85
2023/09/20 00:32:43;;;;;;;1.90;0.68;;;18.40;88.00;;;;;;5019342;28;20145;-85
2023/09/20 00:35:12;;;;;;;1.42;0.32;;;18.40;88.10;;;;;;5046066;28;20049;-85
2023/09/20 00:37:41;;;;;;;2.70;0.50;;;18.40;88.10;;;;;;5051693;28;20049;-85
2023/09/20 00:40:17;;;;;;;3.08;0.50;;;18.40;88.10;;;;;;5035510;28;20483;-85
2023/09/20 00:42:47;;;;;;;1.65;0.70;;;18.40;88.20;;;;;;5036715;28;20418;-85
2023/09/20 00:45:15;;;;;;;3.20;0.60;;;18.40;88.20;;;;;;5051870;28;20128;-85
2023/09/20 00:47:56;;;;;;;2.42;0.70;;;18.40;88.10;;;;;;5050318;28;20497;-84
2023/09/20 00:50:28;;;;;;;2.05;0.40;;;18.40;88.00;;;;;;5035675;28;20513;-85
2023/09/20 00:52:56;;;;;;;4.55;0.60;;;18.40;88.10;;;;;;5033290;28;20549;-84
2023/09/20 00:55:35;;;;;;;1.90;0.40;;;18.40;88.20;;;;;;5031370;28;20062;-85
2023/09/20 00:58:15;;;;;;;2.35;0.30;;;18.30;88.20;;;;;;5032278;28;20099;-84
2023/09/20 01:00:46;;;;;;;1.25;0.32;;;18.20;88.50;;;;;;5051683;28;20143;-85
2023/09/20 01:03:17;;;;;;;3.53;0.47;;;18.20;88.70;;;;;;5051392;28;20051;-84
2023/09/20 01:05:47;;;;;;;1.95;0.43;;;18.20;88.80;;;;;;5034729;28;20072;-84
2023/09/20 01:08:19;;;;;;;1.33;0.40;;;18.20;88.80;;;;;;5051625;28;20557;-84
2023/09/20 01:10:48;;;;;;;1.27;0.52;;;18.20;88.80;;;;;;5019357;28;20123;-84
2023/09/20 01:13:18;;;;;;;3.22;0.70;;;18.20;88.80;;;;;;5051212;28;20045;-84
2023/09/20 01:15:46;;;;;;;2.28;0.45;;;18.20;88.80;;;;;;5035071;28;20127;-83
2023/09/20 01:18:13;;;;;;;2.15;0.50;;;18.20;88.90;;;;;;5035040;28;20053;-84
2023/09/20 01:20:41;;;;;;;3.35;0.50;;;18.10;88.90;;;;;;5029122;28;20140;-84
2023/09/20 01:23:08;;;;;;;2.22;1.05;;;18.10;89.00;;;;;;5044264;28;20049;-84
2023/09/20 01:25:42;;;;;;;2.78;0.50;;;18.00;89.20;;;;;;5051375;28;20049;-84
2023/09/20 01:28:10;;;;;;;2.53;0.47;;;17.90;89.30;;;;;;5012781;28;20046;-84
2023/09/20 01:30:41;;;;;;;3.47;0.60;;;17.90;89.50;;;;;;5033374;28;20065;-84
2023/09/20 01:33:09;;;;;;;3.20;0.60;;;17.80;89.60;;;;;;5042845;28;20384;-83
2023/09/20 01:35:38;;;;;;;4.65;0.63;;;17.70;89.70;;;;;;5034715;28;20076;-83
2023/09/20 01:38:10;;;;;;;2.17;0.43;;;17.70;89.80;;;;;;5050771;28;20068;-84
2023/09/20 01:40:41;;;;;;;3.75;0.60;;;17.60;89.90;;;;;;5028251;28;20128;-83
2023/09/20 01:43:08;;;;;;;2.13;0.70;;;17.60;90.00;;;;;;5030270;28;20045;-83
2023/09/20 01:45:36;;;;;;;1.63;0.50;;;17.50;90.10;;;;;;5051464;28;20045;-83
2023/09/20 01:48:08;;;;;;;2.55;0.50;;;17.50;90.10;;;;;;5022487;28;20052;-83
2023/09/20 01:50:37;;;;;;;4.15;0.80;;;17.40;90.10;;;;;;5054832;28;20045;-83
2023/09/20 01:53:06;;;;;;;3.33;0.80;;;17.40;90.20;;;;;;5054814;28;20045;-83
2023/09/20 01:55:37;;;;;;;2.08;0.60;;;17.40;90.20;;;;;;5014833;28;20091;-83
2023/09/20 01:58:06;;;;;;;4.15;1.30;;;17.30;90.20;;;;;;5040612;28;20044;-83
2023/09/20 02:00:40;;;;;;;1.58;0.55;;;17.30;90.30;;;;;;5043884;28;20057;-85
2023/09/20 02:03:19;;;;;;;2.10;0.60;;;17.30;90.30;;;;;;5022362;28;20101;-84
2023/09/20 02:05:49;;;;;;;2.53;0.65;;;17.30;90.40;;;;;;5054355;28;20583;-84
2023/09/20 02:08:18;;;;;;;2.92;0.85;;;17.20;90.40;;;;;;5021506;28;20436;-85
2023/09/20 02:10:46;;;;;;;3.15;0.63;;;17.20;90.40;;;;;;5038525;28;20517;-85
2023/09/20 02:13:15;;;;;;;1.38;0.63;;;17.10;90.40;;;;;;5037832;28;20087;-85
2023/09/20 02:15:44;;;;;;;1.38;0.60;;;17.20;90.50;;;;;;5038429;28;20041;-84
2023/09/20 02:18:12;;;;;;;2.25;0.52;;;17.10;90.50;;;;;;5021597;28;20137;-84
2023/09/20 02:20:39;;;;;;;1.58;0.80;;;17.10;90.60;;;;;;5038089;28;20080;-85
2023/09/20 02:23:12;;;;;;;3.70;0.50;;;17.10;90.60;;;;;;5037554;28;20476;-83
2023/09/20 02:25:42;;;;;;;2.45;0.45;;;17.10;90.60;;;;;;5005072;28;20418;-83
2023/09/20 02:28:10;;;;;;;3.20;0.50;;;17.00;90.60;;;;;;5053868;28;20041;-82
2023/09/20 02:30:41;;;;;;;1.65;0.52;;;17.00;90.70;;;;;;5054483;28;20041;-83
2023/09/20 02:33:10;;;;;;;1.17;0.80;;;17.00;90.70;;;;;;5037977;28;20091;-83
2023/09/20 02:35:41;;;;;;;2.35;0.40;;;16.90;90.70;;;;;;5047652;28;20043;-83
2023/09/20 02:38:09;;;;;;;2.60;0.60;;;16.90;90.80;;;;;;5014132;28;20053;-83
2023/09/20 02:40:36;;;;;;;2.88;0.57;;;16.90;90.90;;;;;;5037707;28;20045;-83
2023/09/20 02:43:12;;;;;;;3.38;0.50;;;16.90;90.90;;;;;;5037940;28;20487;-83
2023/09/20 02:45:40;;;;;;;1.77;0.30;;;16.80;90.90;;;;;;5001124;28;20069;-83
2023/09/20 02:48:10;;;;;;;1.38;0.60;;;16.80;91.00;;;;;;5034508;28;20099;-83
2023/09/20 02:50:41;;;;;;;2.42;0.40;;;16.80;91.00;;;;;;5040412;28;20073;-83
2023/09/20 02:53:09;;;;;;;1.20;0.40;;;16.80;91.10;;;;;;5023838;28;20069;-83
2023/09/20 02:55:38;;;;;;;1.42;0.50;;;16.70;91.10;;;;;;5002701;28;20050;-83
2023/09/20 02:58:07;;;;;;;2.70;0.40;;;16.70;91.10;;;;;;5029131;28;20044;-83
2023/09/20 03:00:38;;;;;;;2.92;0.60;;;16.70;91.20;;;;;;5014817;28;20128;-83
2023/09/20 03:03:07;;;;;;;1.30;0.60;;;16.70;91.20;;;;;;5005276;28;20042;-83
2023/09/20 03:05:36;;;;;;;2.63;0.50;;;16.70;91.20;;;;;;5017502;28;20042;-83
2023/09/20 03:08:13;;;;;;;1.45;0.50;;;16.60;91.30;;;;;;5001303;28;20128;-83
2023/09/20 03:10:42;;;;;;;1.77;0.43;;;16.60;91.30;;;;;;4976879;28;20128;-83
2023/09/20 03:13:16;;;;;;;1.75;0.47;;;16.50;91.30;;;;;;4983806;28;20100;-83
2023/09/20 03:15:47;;;;;;;1.83;0.45;;;16.50;91.40;;;;;;5015646;28;20045;-83
2023/09/20 03:18:22;;;;;;;1.27;0.27;;;16.50;91.50;;;;;;5011009;28;20049;-83
2023/09/20 03:21:05;;;;;;;2.45;0.40;;;16.40;91.50;;;;;;5001847;28;20057;-83
2023/09/20 03:23:33;;;;;;;2.65;0.35;;;16.40;91.60;;;;;;5000631;28;20051;-83
2023/09/20 03:26:04;;;;;;;2.78;0.52;;;16.30;91.60;;;;;;4985295;28;20046;-83
2023/09/20 03:28:34;;;;;;;1.40;0.65;;;16.30;91.70;;;;;;5000772;28;20052;-83
2023/09/20 03:31:10;;;;;;;1.30;0.30;;;16.30;91.70;;;;;;4984566;28;20377;-83
2023/09/20 03:33:38;;;;;;;1.02;0.40;;;16.30;91.70;;;;;;5016871;28;20046;-83
2023/09/20 03:36:15;;;;;;;1.98;0.40;;;16.30;91.80;;;;;;4993728;28;20108;-83
2023/09/20 03:38:45;;;;;;;1.45;0.50;;;16.30;91.80;;;;;;5008534;28;20049;-84
2023/09/20 03:41:13;;;;;;;2.00;0.50;;;16.30;91.80;;;;;;5016677;28;20104;-85
2023/09/20 03:43:41;;;;;;;1.15;0.40;;;16.30;91.80;;;;;;4994692;28;20174;-85
2023/09/20 03:46:16;;;;;;;1.65;0.50;;;16.30;91.80;;;;;;4988710;28;20041;-85
2023/09/20 03:48:50;;;;;;;2.38;0.50;;;16.30;91.80;;;;;;4981383;28;20048;-85
2023/09/20 03:51:22;;;;;;;1.77;0.50;;;16.30;91.80;;;;;;5002145;28;20124;-85
2023/09/20 03:53:51;;;;;;;1.08;0.40;;;16.30;92.10;;;;;;4991471;28;20045;-85
2023/09/20 03:56:24;;;;;;;1.33;0.40;;;16.40;91.80;;;;;;5001867;28;20057;-85
2023/09/20 03:58:51;;;;;;;1.92;0.52;;;16.40;91.80;;;;;;5014625;28;20049;-85
2023/09/20 04:01:20;;;;;;;3.78;0.93;;;16.40;91.80;;;;;;4995485;28;20128;-84
2023/09/20 04:03:52;;;;;;;1.80;0.70;;;16.50;91.80;;;;;;5031924;28;20415;-85
2023/09/20 04:06:20;;;;;;;3.03;0.60;;;16.50;91.70;;;;;;5032436;28;20492;-84
2023/09/20 04:08:47;;;;;;;2.03;0.57;;;16.50;91.70;;;;;;4999854;28;20041;-85
2023/09/20 04:11:15;;;;;;;2.03;0.55;;;16.60;91.80;;;;;;5007757;28;20053;-85
2023/09/20 04:13:42;;;;;;;2.00;0.50;;;16.60;91.80;;;;;;5032002;28;20498;-85
2023/09/20 04:16:09;;;;;;;1.33;0.43;;;16.70;91.80;;;;;;4999507;28;20056;-84
2023/09/20 04:18:43;;;;;;;2.53;0.70;;;16.70;91.70;;;;;;5015924;28;20045;-85
2023/09/20 04:21:10;;;;;;;1.70;0.50;;;16.80;91.70;;;;;;4999348;28;20049;-85
2023/09/20 04:23:39;;;;;;;2.10;0.65;;;16.80;91.60;;;;;;5016036;28;20049;-84
2023/09/20 04:26:06;;;;;;;3.10;0.63;;;16.90;91.60;;;;;;4994168;28;20052;-83
2023/09/20 04:28:33;;;;;;;2.08;0.50;;;16.90;91.50;;;;;;5015598;28;20041;-83
2023/09/20 04:31:01;;;;;;;4.90;0.60;;;16.90;91.50;;;;;;4991617;28;20050;-83
2023/09/20 04:33:29;;;;;;;1.83;0.60;;;17.00;91.60;;;;;;4994274;28;20045;-83
2023/09/20 04:35:58;;;;;;;3.67;1.10;;;17.00;91.60;;;;;;5015645;28;20472;-83
2023/09/20 04:38:27;;;;;;;2.80;0.60;;;17.00;91.60;;;;;;5015650;28;20046;-83
2023/09/20 04:40:56;;;;;;;1.80;0.52;;;16.90;91.60;;;;;;5032014;28;20049;-83
2023/09/20 04:43:24;;;;;;;3.92;0.60;;;16.90;91.70;;;;;;4998447;28;20487;-83
2023/09/20 04:45:53;;;;;;;1.55;0.55;;;16.90;91.70;;;;;;5025670;28;20049;-83
2023/09/20 04:48:21;;;;;;;2.90;0.60;;;16.80;91.80;;;;;;5031995;28;20045;-83
2023/09/20 04:50:49;;;;;;;4.22;0.95;;;16.70;91.90;;;;;;5031601;28;20053;-83
2023/09/20 04:53:16;;;;;;;2.17;1.02;;;16.70;92.00;;;;;;4973435;28;20049;-83
2023/09/20 04:55:44;;;;;;;4.20;0.80;;;16.70;92.00;;;;;;5010244;28;20163;-83
2023/09/20 04:58:11;;;;;;;2.83;0.70;;;16.60;92.10;;;;;;5031426;28;20053;-83
2023/09/20 05:00:42;;;;;;;2.05;0.77;;;16.60;92.10;;;;;;5030752;28;20049;-83
2023/09/20 05:03:14;;;;;;;3.00;0.68;;;16.60;92.10;;;;;;5020095;28;20048;-83
2023/09/20 05:05:44;;;;;;;2.35;0.93;;;16.60;92.20;;;;;;5017295;28;20404;-83
2023/09/20 05:08:15;;;;;;;3.80;0.90;;;16.50;92.20;;;;;;5017632;28;20038;-82
2023/09/20 05:10:43;;;;;;;1.80;0.73;;;16.50;92.20;;;;;;5024563;28;20407;-84
2023/09/20 05:13:10;;;;;;;1.92;0.57;;;16.50;92.20;;;;;;5034906;28;20045;-84
2023/09/20 05:15:38;;;;;;;2.70;0.57;;;16.50;92.30;;;;;;5034668;28;20407;-85
2023/09/20 05:18:07;;;;;;;2.42;0.70;;;16.50;92.40;;;;;;5014911;28;20124;-83
2023/09/20 05:20:36;;;;;;;4.35;1.00;;;16.50;92.40;;;;;;5020181;28;20495;-84
2023/09/20 05:23:04;;;;;;;1.83;0.50;;;16.40;92.30;;;;;;5019213;28;20517;-84
2023/09/20 05:25:33;;;;;;;2.70;0.63;;;16.40;92.40;;;;;;5032915;28;20521;-84
2023/09/20 05:28:02;;;;;;;2.67;0.70;;;16.40;92.40;;;;;;5018439;28;20085;-85
2023/09/20 05:30:30;;;;;;;2.33;0.60;;;16.40;92.40;;;;;;5036334;28;20091;-83
2023/09/20 05:32:59;;;;;;;3.15;0.80;;;16.40;92.50;;;;;;5017022;28;20044;-83
2023/09/20 05:35:26;;;;;;;2.72;0.68;;;16.40;92.50;;;;;;5000135;28;20049;-83
2023/09/20 05:37:53;;;;;;;1.73;0.60;;;16.40;92.50;;;;;;5015720;28;20046;-83
2023/09/20 05:40:21;;;;;;;2.42;0.57;;;16.40;92.50;;;;;;5035011;28;20084;-83
2023/09/20 05:42:50;;;;;;;2.20;0.60;;;16.40;92.50;;;;;;5020894;28;20049;-83
2023/09/20 05:45:23;;;;;;;2.25;0.70;;;16.40;92.50;;;;;;5030436;28;20048;-84
2023/09/20 05:47:50;;;;;;;3.20;0.60;;;16.40;92.50;;;;;;5034292;28;20037;-83
2023/09/20 05:50:31;;;;;;;2.22;0.50;;;16.40;92.50;;;;;;5012348;28;20041;-84
2023/09/20 05:53:06;;;;;;;4.15;0.90;;;16.50;92.50;;;;;;5034960;28;20037;-83
2023/09/20 05:55:43;;;;;;;2.63;0.70;;;16.50;92.50;;;;;;5034189;28;20049;-83
2023/09/20 05:58:12;;;;;;;3.15;0.80;;;16.50;92.50;;;;;;5039017;28;20045;-84
2023/09/20 06:00:39;;;;;;;2.05;0.60;;;16.50;92.40;;;;;;5005840;28;20073;-84
2023/09/20 06:03:07;;;;;;;1.00;0.50;;;16.60;92.40;;;;;;5019664;28;20492;-84
2023/09/20 06:05:37;;;;;;;1.60;0.70;;;16.60;92.40;;;;;;5021256;28;20049;-84
2023/09/20 06:08:14;;;;;;;2.50;0.63;;;16.70;92.40;;;;;;5021254;28;20047;-84
2023/09/20 06:10:44;;;;;;;1.50;0.50;;;16.80;92.30;;;;;;5018444;28;20060;-84
2023/09/20 06:13:12;;;;;;;2.85;0.73;;;16.90;92.20;;;;;;5022915;28;20065;-84
2023/09/20 06:15:42;;;;;;;2.65;0.60;;;17.00;92.20;;;;;;5050857;28;20494;-85
2023/09/20 06:18:09;;;;;;;1.55;0.60;;;17.00;92.10;;;;;;5034322;28;20050;-84
2023/09/20 06:20:36;;;;;;;2.75;0.68;;;17.10;92.00;;;;;;5034236;28;20064;-85
2023/09/20 06:23:06;;;;;;;2.25;0.80;;;17.20;92.00;;;;;;5018316;28;20276;-84
2023/09/20 06:25:34;;;;;;;2.22;1.08;;;17.30;91.90;;;;;;5004413;28;20055;-84
2023/09/20 06:28:09;;;;;;;1.30;0.50;;;17.30;91.90;;;;;;5036804;28;20445;-84
2023/09/20 06:30:36;;;;;;;3.58;0.82;;;17.40;91.80;;;;;;5013182;28;20041;-84
2023/09/20 06:33:06;;;;;;;1.92;0.60;;;17.50;91.80;;;;;;5019587;28;20041;-84
2023/09/20 06:35:33;;;;;;;3.30;0.70;;;17.60;91.70;;;;;;5028719;28;20051;-84
2023/09/20 06:38:00;;;;;;;2.17;0.65;;;17.60;91.70;;;;;;5015536;28;20049;-85
2023/09/20 06:40:38;;;;;;;4.07;0.70;;;17.60;91.70;;;;;;5033461;28;20045;-84
2023/09/20 06:43:11;;;;;;;5.50;0.80;;;17.60;91.70;;;;;;5044369;28;20053;-84
2023/09/20 06:45:52;;;;;;;2.05;0.68;;;17.60;91.70;;;;;;5015176;28;20050;-84
2023/09/20 06:48:22;;;;;;;3.30;0.73;;;17.70;91.60;;;;;;5028071;28;20044;-84
2023/09/20 06:50:54;;;;;;;3.80;0.98;;;17.70;91.60;;;;;;5024835;28;20057;-85
2023/09/20 06:53:25;;;;;;;5.15;0.70;;;17.80;91.60;;;;;;5010507;28;20064;-83
2023/09/20 06:55:53;;;;;;;3.20;0.70;;;17.80;91.60;;;;;;5033925;28;20136;-83
2023/09/20 06:58:21;;;;;;;2.78;0.90;;;17.90;91.50;;;;;;5004797;28;20041;-83
2023/09/20 07:00:50;;;;;;;2.65;1.13;;;17.90;91.50;;;;;;5053606;28;20175;-83
2023/09/20 07:03:19;;;;;;;4.40;1.08;;;17.90;91.40;;;;;;5028416;28;20052;-82
2023/09/20 07:05:47;;;;;;;3.55;0.70;;;18.00;91.40;;;;;;5043842;28;20059;-83
2023/09/20 07:08:23;;;;;;;3.63;1.10;;;18.00;91.40;;;;;;5052494;28;20087;-82
2023/09/20 07:10:50;;;;;;;3.50;1.10;;;18.10;91.40;;;;;;5037229;28;20471;-82
2023/09/20 07:13:19;;;;;;;3.60;0.90;;;18.10;91.40;;;;;;5020693;28;20053;-83
2023/09/20 07:15:47;;;;;;;2.38;0.80;;;18.10;91.30;;;;;;5027756;28;20060;-83
2023/09/20 07:18:19;;;;;;;4.22;0.95;;;18.20;91.30;;;;;;5020690;28;20057;-83
2023/09/20 07:20:48;;;;;;;3.75;0.68;;;18.30;91.10;;;;;;5043371;28;20055;-83
2023/09/20 07:23:15;;;;;;;2.70;0.82;;;18.50;91.10;;;;;;5037100;28;20127;-82
2023/09/20 07:25:43;;;;;;;2.67;0.80;;;18.60;91.00;;;;;;5020442;28;20051;-83
2023/09/20 07:28:11;;;;;;;3.60;0.75;;;18.70;90.80;;;;;;5026233;28;20038;-83
2023/09/20 07:30:44;;;;;;;2.63;0.73;;;18.80;90.80;;;;;;5052034;28;20048;-82
2023/09/20 07:33:23;;;;;;;2.83;0.73;;;18.80;90.70;;;;;;5036768;28;20128;-83
2023/09/20 07:36:00;;;;;;;3.35;0.70;;;19.00;90.60;;;;;;5052606;28;20094;-82
2023/09/20 07:38:32;;;;;;;1.73;0.80;;;19.10;90.60;;;;;;5029830;28;20517;-83
2023/09/20 07:41:17;;;;;;;2.35;1.27;;;19.10;90.50;;;;;;5012792;28;20049;-83
2023/09/20 07:43:47;;;;;;;2.00;0.68;;;19.10;90.70;;;;;;5044450;28;20056;-82
2023/09/20 07:46:57;;;;;;;4.28;0.90;;;19.00;90.50;;;;;;4953993;29;20050;-83
2023/09/20 07:50:03;;;;;;;2.83;0.65;;;19.00;90.60;;;;;;4970595;28;20066;-83
2023/09/20 07:53:40;;;;;;;3.13;0.90;;;19.10;90.50;;;;;;4969895;28;20100;-83
2023/09/20 07:56:11;;;;;;;2.60;0.70;;;19.00;90.50;;;;;;4965593;28;20409;-83
2023/09/20 07:58:53;;;;;;;1.67;0.55;;;19.00;90.50;;;;;;4980205;28;20046;-83
2023/09/20 08:05:11;;;;;;;2.50;0.80;;;19.20;90.40;;;;;;4978355;28;20046;-82
2023/09/20 08:07:43;;;;;;;2.08;0.60;;;19.20;90.40;;;;;;4964543;28;20094;-83
2023/09/20 08:14:00;;;;;;;2.25;0.80;;;19.40;90.20;;;;;;4955374;28;20051;-83
2023/09/20 08:19:58;;;;;;;2.92;0.60;;;19.70;90.00;;;;;;5021348;28;20045;-83
2023/09/20 09:02:30;;;;;;;2.50;0.90;;;20.20;88.10;;;;;;5021488;28;20065;-83
2023/09/20 09:05:01;;;;;;;3.25;0.80;;;20.10;88.40;;;;;;5051165;28;20091;-82
2023/09/20 09:07:34;;;;;;;1.42;0.57;;;20.10;88.30;;;;;;5028421;28;20411;-82
2023/09/20 09:10:01;;;;;;;1.90;0.82;;;20.10;88.50;;;;;;5016278;28;20128;-83
2023/09/20 09:16:42;;;;;;;2.80;0.52;;;20.10;88.40;;;;;;5043315;28;20049;-82
2023/09/20 09:22:28;;;;;;;1.85;0.50;;;20.20;88.30;;;;;;5018564;28;20033;-83
2023/09/20 09:24:59;;;;;;;1.40;0.63;;;20.30;88.20;;;;;;5044824;28;20041;-83
2023/09/20 09:27:26;;;;;;;1.42;0.70;;;20.40;88.00;;;;;;5030020;28;20438;-83
2023/09/20 09:30:18;;;;;;;1.17;0.52;;;20.40;87.70;;;;;;5038027;28;20041;-83
2023/09/20 09:33:26;;;;;;;0.90;0.40;;;20.50;87.50;;;;;;5008385;28;20399;-84
2023/09/20 09:36:15;;;;;;;1.17;0.50;;;20.60;87.50;;;;;;5027648;28;20032;-84
2023/09/20 09:39:19;;;;;;;;;;;;;;;;;;;;;
2023/09/20 09:42:25;;;;;;;1.95;0.60;;;20.60;86.90;;;;;;5042210;28;20522;-83
2023/09/20 09:45:44;;;;;;;2.08;0.57;;;20.60;87.10;;;;;;4959918;28;20066;-88
2023/09/20 09:48:48;;;;;;;1.27;0.52;;;20.60;87.10;;;;;;4984388;28;20063;-84
2023/09/20 09:51:59;;;;;;;2.78;0.50;;;20.60;87.10;;;;;;4908680;29;20580;-84
2023/09/20 09:54:54;;;;;;;2.38;0.70;;;20.60;87.10;;;;;;4935963;29;20043;-88
2023/09/20 09:57:32;;;;;;;3.05;1.05;;;20.60;86.70;;;;;;4960079;28;20042;-85
2023/09/20 10:00:00;;;;;;;3.13;0.88;;;20.70;86.70;;;;;;4983872;28;20472;-85
2023/09/20 10:02:44;;;;;;;2.67;0.95;;;20.80;86.30;;;;;;4982873;28;20136;-87
2023/09/20 10:05:37;;;;;;;2.08;0.98;;;20.90;86.00;;;;;;4968675;28;20053;-89
2023/09/20 10:08:11;;;;;;;2.92;1.17;;;21.00;85.60;;;;;;4983728;28;20053;-84
2023/09/20 10:10:44;;;;;;;3.38;0.93;;;20.90;85.30;;;;;;4963361;28;20082;-85
2023/09/20 10:13:22;;;;;;;3.08;1.27;;;20.90;85.00;;;;;;4985807;28;20052;-88
2023/09/20 10:16:10;;;;;;;1.67;0.93;;;20.90;84.90;;;;;;4978822;28;20058;-87
2023/09/20 10:18:51;;;;;;;3.05;1.25;;;20.90;84.90;;;;;;5051644;28;20052;-87
2023/09/20 10:21:34;;;;;;;2.30;0.90;;;20.90;85.00;;;;;;5055305;28;20045;-86
2023/09/20 10:24:08;;;;;;;3.03;1.13;;;21.00;85.10;;;;;;5016458;28;20112;-87
2023/09/20 10:26:41;;;;;;;2.35;1.00;;;21.10;84.90;;;;;;5026360;28;20053;-88
2023/09/20 10:29:24;;;;;;;2.80;1.02;;;21.20;84.70;;;;;;5054929;28;20058;-87
2023/09/20 10:32:13;;;;;;;2.08;0.60;;;21.30;84.40;;;;;;5033566;28;20049;-84
2023/09/20 10:35:22;;;;;;;3.13;0.90;;;21.40;84.50;;;;;;5012478;28;20820;-85
2023/09/20 10:38:25;;;;;;;2.38;0.82;;;21.30;84.30;;;;;;5023156;28;20053;-84
2023/09/20 10:40:57;;;;;;;4.82;0.80;;;21.30;84.70;;;;;;5033766;28;20053;-88
2023/09/20 10:44:02;;;;;;;2.10;0.90;;;21.30;84.30;;;;;;5037727;28;20049;-88
2023/09/20 10:46:37;;;;;;;2.88;0.93;;;21.30;84.40;;;;;;5054793;28;20122;-87
2023/09/20 10:49:47;;;;;;;4.00;1.70;;;21.40;83.90;;;;;;5043217;28;20061;-89
2023/09/20 10:52:32;;;;;;;4.03;1.10;;;21.60;83.30;;;;;;5017615;28;20049;-89
2023/09/20 10:55:17;;;;;;;2.08;0.73;;;21.70;83.20;;;;;;4997475;28;20050;-89
2023/09/20 10:57:46;;;;;;;2.95;0.90;;;21.90;83.00;;;;;;4991735;28;20042;-86
2023/09/20 11:00:30;;;;;;;2.55;0.98;;;21.90;82.70;;;;;;4989434;28;20050;-95
2023/09/20 11:03:28;;;;;;;1.27;0.70;;;22.00;82.40;;;;;;4979192;28;20050;-88
2023/09/20 11:06:01;;;;;;;3.28;0.70;;;22.00;82.20;;;;;;4981524;28;20552;-88
2023/09/20 11:08:43;;;;;;;1.90;0.80;;;22.00;82.50;;;;;;4982130;28;20096;-88
2023/09/20 11:11:19;;;;;;;3.20;1.05;;;22.00;82.20;;;;;;4982255;28;20059;-87
2023/09/20 11:13:49;;;;;;;1.67;0.70;;;22.10;81.80;;;;;;4978118;28;20045;-87
2023/09/20 11:16:20;;;;;;;1.77;0.75;;;22.20;81.50;;;;;;4982789;28;20050;-88
2023/09/20 11:18:58;;;;;;;3.70;0.95;;;22.30;81.20;;;;;;4959921;28;20134;-90
2023/09/20 11:22:17;;;;;;;1.42;0.45;;;22.30;80.90;;;;;;4943833;28;20062;-89
2023/09/20 11:29:02;;;;;;;2.33;0.73;;;22.40;80.60;;;;;;5015925;28;20029;-87
2023/09/20 11:31:32;;;;;;;1.50;0.70;;;22.40;80.90;;;;;;5017264;28;20307;-87
2023/09/20 11:34:03;;;;;;;2.45;0.70;;;22.50;80.30;;;;;;5017706;28;20045;-87
2023/09/20 11:37:12;;;;;;;1.83;0.70;;;22.50;79.50;;;;;;5007850;28;20097;-88
2023/09/20 11:39:42;;;;;;;1.63;0.70;;;22.50;79.90;;;;;;5005886;28;20415;-81
2023/09/20 11:42:45;;;;;;;;;;;;;;;;;;;;;
2023/09/20 11:45:16;;;;;;;2.08;0.57;;;22.50;79.80;;;;;;5021181;28;20044;-85
2023/09/20 11:48:08;;;;;;;1.55;0.60;;;22.40;80.20;;;;;;5001180;28;20048;-86
2023/09/20 11:50:44;;;;;;;2.42;0.70;;;22.40;80.20;;;;;;5000912;28;20046;-87
2023/09/20 11:53:15;;;;;;;1.13;0.45;;;22.40;80.30;;;;;;4988188;28;20045;-86
2023/09/20 11:55:45;;;;;;;0.77;0.40;;;22.40;80.40;;;;;;5011891;28;20107;-84
2023/09/20 11:58:20;;;;;;;1.92;0.63;;;22.40;80.40;;;;;;5033706;28;20143;-85
2023/09/20 12:00:50;;;;;;;1.25;0.40;;;22.40;80.50;;;;;;5035938;28;20048;-85
2023/09/20 12:03:17;;;;;;;1.25;0.47;;;22.30;80.60;;;;;;5049285;28;20049;-83
2023/09/20 12:05:45;;;;;;;2.75;0.52;;;22.30;80.20;;;;;;5026452;28;20072;-88
2023/09/20 12:08:31;;;;;;;;;;;22.30;80.40;;;;;;5037029;28;20072;-87
2023/09/20 12:11:41;;;;;;;0.77;0.30;;;22.30;80.60;;;;;;5020179;28;19927;-88
2023/09/20 12:14:13;;;;;;;2.05;0.47;;;22.50;79.80;;;;;;5031232;28;20144;-87
2023/09/20 12:16:47;;;;;;;2.50;0.40;;;22.60;79.90;;;;;;5036313;28;20076;-89
2023/09/20 12:23:35;;;;;;;1.27;0.30;;;22.80;79.20;;;;;;5049662;28;20047;-83
2023/09/20 12:29:33;;;;;;;1.58;0.40;;;23.10;79.20;;;;;;5012236;28;20060;-85
2023/09/20 12:33:11;;;;;;;1.38;0.40;;;23.20;78.60;;;;;;4973899;28;20257;-85
2023/09/20 12:40:04;;;;;;;2.08;0.60;;;23.00;77.80;;;;;;4988718;28;20072;-86
2023/09/20 12:42:43;;;;;;;1.92;0.43;;;22.90;78.00;;;;;;5006161;28;20427;-83
2023/09/20 12:50:36;;;;;;;1.10;0.30;;;23.00;78.10;;;;;;5009873;28;20530;-84
2023/09/20 12:53:57;;;;;;;1.00;0.30;;;22.90;78.60;;;;;;5003986;28;20051;-83
2023/09/20 12:57:05;;;;;;;1.63;0.50;;;22.90;78.60;;;;;;5007618;28;20038;-82
2023/09/20 13:04:42;;;;;;;0.90;0.40;;;22.90;78.60;;;;;;5025801;28;20076;-84
2023/09/20 13:07:35;;;;;;;1.05;0.40;;;22.90;78.50;;;;;;5020905;28;20083;-85
2023/09/20 13:15:22;;;;;;;;;;;;;;;;;;;;;
2023/09/20 13:18:16;;;;;;;2.65;0.50;;;22.80;78.40;;;;;;5000570;28;20038;-84
2023/09/20 13:21:40;;;;;;;1.95;0.50;;;22.70;77.90;;;;;;4962098;28;20058;-84
2023/09/20 13:24:08;;;;;;;1.33;0.50;;;22.80;78.00;;;;;;4970047;28;20047;-84
2023/09/20 13:26:56;;;;;;;0.88;0.45;;;22.80;77.80;;;;;;4946775;29;20419;-84
2023/09/20 13:33:41;;;;;;;2.83;0.40;;;23.20;76.80;;;;;;4968145;28;20058;-85
2023/09/20 13:36:08;;;;;;;1.42;0.50;;;23.20;76.40;;;;;;4956260;28;20043;-90
2023/09/20 13:38:43;;;;;;;1.80;0.60;;;23.10;75.90;;;;;;4918112;28;20074;-88
2023/09/20 13:41:27;;;;;;;3.42;0.52;;;23.10;76.20;;;;;;4911541;28;20055;-88
2023/09/20 13:43:54;;;;;;;2.10;0.63;;;23.10;76.40;;;;;;4960380;28;20150;-87
2023/09/20 13:46:25;;;;;;;2.40;0.70;;;23.10;75.70;;;;;;4944608;29;20043;-88
2023/09/20 13:48:55;;;;;;;3.22;0.82;;;23.10;74.90;;;;;;4928177;29;20099;-86
2023/09/20 13:51:23;;;;;;;2.00;0.75;;;23.10;75.00;;;;;;4942929;29;20047;-87
2023/09/20 13:53:50;;;;;;;2.22;0.63;;;23.10;75.40;;;;;;4941569;29;20052;-89
2023/09/20 13:56:21;;;;;;;1.45;0.50;;;23.10;75.60;;;;;;4954315;28;20051;-84
2023/09/20 13:58:54;;;;;;;1.17;0.45;;;23.00;75.70;;;;;;4991838;28;20050;-86
2023/09/20 14:01:32;;;;;;;4.10;0.68;;;22.90;76.00;;;;;;5001175;28;20054;-83
2023/09/20 14:04:03;;;;;;;1.23;0.50;;;22.90;76.00;;;;;;5026614;28;20049;-86
2023/09/20 14:06:33;;;;;;;2.72;0.70;;;22.90;76.20;;;;;;5017730;28;20148;-86
2023/09/20 14:09:00;;;;;;;2.85;0.50;;;22.90;76.00;;;;;;5019447;28;20065;-86
2023/09/20 14:11:37;;;;;;;1.55;0.60;;;22.90;75.90;;;;;;5015857;28;20046;-83
2023/09/20 14:14:26;;;;;;;1.20;0.43;;;22.80;75.80;;;;;;5027986;28;20070;-89
2023/09/20 14:17:14;;;;;;;1.52;0.63;;;22.80;75.80;;;;;;5034766;28;20065;-84
2023/09/20 14:20:31;;;;;;;;;;;;;;;;;;;;;
2023/09/20 14:23:44;;;;;;;1.25;0.38;;;22.80;76.00;;;;;;4983589;28;20432;-87
2023/09/20 14:26:29;;;;;;;1.38;0.30;;;22.70;76.20;;;;;;4983998;28;20056;-90
2023/09/20 14:28:59;;;;;;;1.40;0.55;;;22.70;76.20;;;;;;5002432;28;20069;-88
2023/09/20 14:31:27;;;;;;;1.75;0.60;;;22.80;75.60;;;;;;5015746;28;20530;-86
2023/09/20 14:34:41;;;;;;;;;;;;;;;;;;;;;
2023/09/20 14:40:54;;;;;;;1.60;0.50;;;22.90;75.20;;;;;;4981244;28;20104;-84
2023/09/20 14:43:24;;;;;;;1.05;0.30;;;22.80;75.20;;;;;;5020202;28;20047;-83
2023/09/20 14:46:06;;;;;;;1.30;0.30;;;22.80;75.50;;;;;;5003502;28;20042;-83
2023/09/20 14:48:41;;;;;;;0.80;0.30;;;22.80;75.50;;;;;;5005523;28;20046;-83
2023/09/20 14:51:18;;;;;;;3.28;0.68;;;22.80;75.20;;;;;;5006430;28;20037;-83
2023/09/20 14:53:53;;;;;;;1.63;0.40;;;22.70;75.10;;;;;;5018119;28;20499;-82
2023/09/20 14:56:21;;;;;;;1.80;0.43;;;22.70;75.30;;;;;;5039962;28;20060;-88
2023/09/20 14:58:49;;;;;;;1.35;0.30;;;22.70;75.50;;;;;;5037216;28;20051;-84
2023/09/20 15:01:46;;;;;;;1.17;0.30;;;22.70;75.50;;;;;;5039748;28;20134;-84
2023/09/20 15:04:21;;;;;;;0.98;0.30;;;22.60;75.70;;;;;;5006649;28;20073;-83
2023/09/20 15:07:32;;;;;;;0.80;0.30;;;22.60;75.90;;;;;;5022830;28;20052;-83
2023/09/20 15:10:01;;;;;;;0.47;0.17;;;22.60;76.10;;;;;;5053732;28;20111;-84
2023/09/20 15:12:38;;;;;;;0.80;0.20;;;22.40;76.30;;;;;;5053485;28;20122;-84